createdAt,value
2022-10-19T00:02:07.050Z,35.13
2022-10-19T00:05:09.622Z,38.08
2022-10-19T00:08:11.824Z,34.97
2022-10-19T00:11:14.305Z,38.50
2022-10-19T00:14:22.885Z,39.90
2022-10-19T00:17:25.259Z,34.30
2022-10-19T00:20:27.511Z,43.50
2022-10-19T00:23:29.940Z,39.92
2022-10-19T00:26:32.231Z,37.50
2022-10-19T00:29:35.038Z,40.00
2022-10-19T00:32:37.435Z,40.28
2022-10-19T00:35:42.761Z,40.08
2022-10-19T00:38:44.971Z,40.00
2022-10-19T00:41:47.916Z,42.17
2022-10-19T00:44:50.037Z,40.88
2022-10-19T00:47:52.238Z,45.33
2022-10-19T00:50:56.609Z,37.55
2022-10-19T00:53:59.009Z,40.67
2022-10-19T00:57:01.113Z,40.15
2022-10-19T01:00:07.486Z,39.72
2022-10-19T01:03:11.615Z,44.13
2022-10-19T01:06:15.878Z,40.40
2022-10-19T01:09:18.106Z,43.65
2022-10-19T01:12:59.248Z,41.70
2022-10-19T01:16:50.231Z,43.20
2022-10-19T01:20:28.256Z,38.78
2022-10-19T01:23:55.525Z,39.05
2022-10-19T01:27:27.124Z,42.33
2022-10-19T01:30:42.649Z,40.65
2022-10-19T01:34:02.296Z,37.92
2022-10-19T01:37:17.173Z,37.42
2022-10-19T01:40:31.047Z,42.92
2022-10-19T01:43:42.072Z,36.70
2022-10-19T01:46:54.767Z,38.70
2022-10-19T01:50:11.565Z,45.17
2022-10-19T01:53:16.185Z,41.22
2022-10-19T01:56:22.029Z,37.20
2022-10-19T01:59:24.105Z,38.13
2022-10-19T02:02:28.074Z,37.75
2022-10-19T02:05:32.982Z,37.80
2022-10-19T02:08:44.136Z,44.13
2022-10-19T02:11:53.367Z,39.25
2022-10-19T02:15:01.668Z,34.40
2022-10-19T02:18:07.168Z,37.13
2022-10-19T02:21:09.635Z,38.30
2022-10-19T02:24:11.801Z,36.60
2022-10-19T02:27:14.252Z,35.88
2022-10-19T02:30:19.760Z,36.63
2022-10-19T02:33:21.959Z,38.05
2022-10-19T02:36:24.713Z,38.13
2022-10-19T02:39:26.943Z,36.67
2022-10-19T02:42:52.420Z,34.45
2022-10-19T02:46:10.727Z,37.50
2022-10-19T02:49:13.783Z,31.98
2022-10-19T02:52:15.816Z,37.08
2022-10-19T02:55:18.235Z,35.80
2022-10-19T02:58:20.319Z,34.95
2022-10-19T03:01:22.596Z,32.15
2022-10-19T03:04:24.772Z,32.97
2022-10-19T03:07:27.247Z,33.65
2022-10-19T03:10:29.304Z,35.00
2022-10-19T03:13:31.501Z,33.17
2022-10-19T03:16:33.572Z,32.15
2022-10-19T03:19:36.527Z,32.88
2022-10-19T03:22:38.622Z,33.85
2022-10-19T03:25:40.778Z,29.73
2022-10-19T03:28:43.102Z,31.42
2022-10-19T03:31:45.216Z,31.00
2022-10-19T03:34:47.360Z,35.38
2022-10-19T03:37:49.422Z,32.75
2022-10-19T03:40:51.446Z,30.10
2022-10-19T03:43:53.732Z,30.67
2022-10-19T03:46:55.831Z,30.13
2022-10-19T03:49:57.859Z,29.33
2022-10-19T03:52:59.954Z,32.70
2022-10-19T03:56:08.447Z,28.80
2022-10-19T03:59:15.907Z,29.75
2022-10-19T04:02:18.019Z,28.95
2022-10-19T04:05:20.087Z,26.92
2022-10-19T04:08:22.103Z,31.38
2022-10-19T04:11:27.016Z,27.85
2022-10-19T04:14:33.238Z,24.63
2022-10-19T04:17:41.178Z,26.75
2022-10-19T04:20:43.980Z,26.58
2022-10-19T04:23:46.345Z,27.25
2022-10-19T04:26:53.545Z,29.83
2022-10-19T04:29:55.626Z,27.17
2022-10-19T04:32:57.678Z,26.17
2022-10-19T04:36:04.648Z,26.60
2022-10-19T04:39:07.274Z,28.13
2022-10-19T04:42:09.334Z,25.58
2022-10-19T04:45:11.459Z,26.65
2022-10-19T04:48:15.143Z,24.23
2022-10-19T04:51:18.603Z,24.33
2022-10-19T04:54:20.674Z,23.55
2022-10-19T04:57:22.740Z,23.35
2022-10-19T05:00:24.806Z,26.15
2022-10-19T05:03:26.845Z,26.10
2022-10-19T05:06:30.547Z,23.13
2022-10-19T05:09:32.642Z,23.85
2022-10-19T05:12:35.668Z,25.80
2022-10-19T05:15:37.734Z,22.60
2022-10-19T05:18:40.142Z,23.70
2022-10-19T05:21:42.249Z,23.17
2022-10-19T05:24:44.418Z,20.83
2022-10-19T05:27:51.517Z,23.48
2022-10-19T05:30:53.725Z,27.67
2022-10-19T05:33:56.617Z,22.23
2022-10-19T05:36:59.137Z,20.85
2022-10-19T05:40:01.190Z,22.63
2022-10-19T05:43:03.312Z,23.17
2022-10-19T05:46:08.045Z,25.13
2022-10-19T05:49:11.977Z,22.67
2022-10-19T05:52:14.001Z,22.73
2022-10-19T05:55:16.103Z,22.70
2022-10-19T05:58:18.143Z,21.45
2022-10-19T06:01:20.567Z,21.73
2022-10-19T06:04:22.674Z,21.30
2022-10-19T06:07:24.781Z,21.38
2022-10-19T06:10:26.876Z,23.05
2022-10-19T06:13:28.960Z,20.80
2022-10-19T06:16:32.254Z,18.75
2022-10-19T06:19:34.362Z,21.00
2022-10-19T06:22:36.500Z,20.13
2022-10-19T06:25:38.906Z,19.08
2022-10-19T06:28:42.377Z,20.08
2022-10-19T06:31:45.770Z,20.70
2022-10-19T06:34:47.826Z,21.90
2022-10-19T06:37:49.931Z,20.33
2022-10-19T06:40:51.971Z,20.58
2022-10-19T06:43:55.210Z,20.33
2022-10-19T06:46:57.272Z,21.35
2022-10-19T06:49:59.313Z,21.45
2022-10-19T06:53:01.344Z,24.80
2022-10-19T06:56:06.044Z,18.90
2022-10-19T06:59:08.105Z,20.02
2022-10-19T07:02:13.378Z,19.27
2022-10-19T07:05:15.513Z,19.17
2022-10-19T07:08:17.563Z,21.95
2022-10-19T07:11:22.611Z,21.77
2022-10-19T07:14:24.933Z,20.00
2022-10-19T07:17:26.997Z,16.90
2022-10-19T07:20:29.025Z,26.15
2022-10-19T07:23:33.441Z,21.65
2022-10-19T07:26:35.938Z,25.70
2022-10-19T07:29:37.992Z,23.42
2022-10-19T07:32:44.548Z,23.85
2022-10-19T07:35:49.277Z,29.10
2022-10-19T07:38:51.771Z,26.30
2022-10-19T07:41:53.839Z,26.92
2022-10-19T07:44:56.071Z,24.88
2022-10-19T07:47:59.368Z,24.23
2022-10-19T07:51:03.028Z,27.02
2022-10-19T07:54:05.290Z,27.65
2022-10-19T07:57:07.335Z,26.67
2022-10-19T08:00:10.482Z,28.23
2022-10-19T08:06:37.596Z,31.23
2022-10-19T08:09:52.803Z,27.92
2022-10-19T08:12:55.651Z,34.70
2022-10-19T08:15:57.707Z,25.13
2022-10-19T08:19:07.165Z,23.45
2022-10-19T08:22:09.370Z,21.33
2022-10-19T08:25:11.438Z,23.83
2022-10-19T08:28:13.504Z,22.25
2022-10-19T08:31:18.452Z,21.08
2022-10-19T08:34:20.874Z,19.92
2022-10-19T08:37:39.943Z,26.15
2022-10-19T08:40:45.251Z,23.02
2022-10-19T08:44:14.381Z,22.90
2022-10-19T08:47:43.615Z,25.75
2022-10-19T08:50:47.171Z,26.25
2022-10-19T08:53:57.198Z,27.02
2022-10-19T08:57:15.839Z,24.13
2022-10-19T09:01:00.417Z,22.40
2022-10-19T09:04:14.941Z,23.77
2022-10-19T09:07:28.456Z,24.70
2022-10-19T09:10:35.756Z,28.42
2022-10-19T09:14:00.524Z,27.90
2022-10-19T09:17:13.631Z,23.33
2022-10-19T09:20:20.501Z,26.95
2022-10-19T09:23:32.606Z,21.33
2022-10-19T09:26:58.646Z,24.60
2022-10-19T09:30:07.201Z,25.15
2022-10-19T09:33:18.825Z,21.70
2022-10-19T09:36:27.501Z,21.05
2022-10-19T09:39:35.501Z,23.08
2022-10-19T09:42:38.026Z,26.23
2022-10-19T09:45:55.413Z,25.95
2022-10-19T09:49:01.311Z,23.58
2022-10-19T09:52:03.525Z,26.02
2022-10-19T09:55:14.772Z,25.55
2022-10-19T09:58:19.045Z,30.65
2022-10-19T10:01:43.126Z,26.23
2022-10-19T10:05:15.797Z,29.08
2022-10-19T10:08:22.913Z,24.10
2022-10-19T10:11:27.012Z,25.50
2022-10-19T10:14:30.670Z,22.17
2022-10-19T10:17:32.826Z,23.05
2022-10-19T10:20:35.071Z,28.95
2022-10-19T10:23:37.857Z,24.02
2022-10-19T10:26:55.070Z,27.70
2022-10-19T10:29:57.856Z,25.02
2022-10-19T10:33:13.562Z,32.65
2022-10-19T10:36:42.862Z,30.50
2022-10-19T10:40:12.846Z,25.10
2022-10-19T10:43:34.858Z,31.23
2022-10-19T10:46:58.825Z,25.73
2022-10-19T10:50:06.518Z,29.45
2022-10-19T10:53:32.676Z,30.05
2022-10-19T10:56:35.375Z,35.53
2022-10-19T10:59:56.384Z,29.13
2022-10-19T11:03:22.764Z,32.47
2022-10-19T11:06:26.035Z,33.38
2022-10-19T11:09:43.750Z,30.98
2022-10-19T11:12:51.711Z,33.80
2022-10-19T11:16:01.342Z,31.50
2022-10-19T11:19:39.522Z,36.65
2022-10-19T11:23:01.868Z,36.42
2022-10-19T11:26:35.755Z,28.17
2022-10-19T11:29:58.688Z,28.58
2022-10-19T11:33:54.161Z,33.55
2022-10-19T11:37:29.408Z,35.35
2022-10-19T11:40:45.797Z,32.35
2022-10-19T11:44:05.122Z,40.95
2022-10-19T11:47:07.324Z,39.78
2022-10-19T11:50:22.363Z,39.95
2022-10-19T11:53:51.858Z,36.45
2022-10-19T11:57:04.083Z,36.80
2022-10-19T12:00:15.047Z,34.42
2022-10-19T12:03:26.130Z,34.20
2022-10-19T12:06:40.321Z,35.78
2022-10-19T12:09:51.453Z,38.00
2022-10-19T12:13:05.458Z,33.03
2022-10-19T12:16:10.639Z,40.42
2022-10-19T12:19:21.085Z,36.05
2022-10-19T12:22:28.070Z,36.85
2022-10-19T12:25:30.347Z,44.80
2022-10-19T12:28:36.838Z,39.67
2022-10-19T12:31:39.833Z,37.95
2022-10-19T12:35:04.897Z,38.10
2022-10-19T12:38:25.299Z,36.17
2022-10-19T12:41:37.105Z,34.03
2022-10-19T12:44:58.872Z,31.52
2022-10-19T12:48:12.762Z,30.70
2022-10-19T12:51:16.780Z,44.40
2022-10-19T12:54:23.657Z,37.00
2022-10-19T12:57:30.350Z,33.72
2022-10-19T13:00:38.828Z,35.13
2022-10-19T13:03:44.477Z,31.60
2022-10-19T13:07:10.956Z,37.47
2022-10-19T13:10:21.039Z,35.70
2022-10-19T13:13:47.742Z,39.95
2022-10-19T13:17:05.095Z,37.63
2022-10-19T13:20:19.150Z,34.50
2022-10-19T13:23:27.054Z,33.67
2022-10-19T13:26:34.106Z,32.83
2022-10-19T13:29:40.444Z,40.75
2022-10-19T13:32:45.469Z,36.65
2022-10-19T13:35:48.294Z,32.25
2022-10-19T13:38:56.150Z,35.17
2022-10-19T13:41:59.017Z,41.83
2022-10-19T13:45:01.687Z,39.72
2022-10-19T13:48:21.788Z,35.15
2022-10-19T13:55:06.335Z,31.45
2022-10-19T13:58:27.264Z,36.85
2022-10-19T14:02:20.670Z,31.17
2022-10-19T14:06:11.792Z,32.75
2022-10-19T14:09:25.574Z,31.45
2022-10-19T14:12:30.234Z,33.75
2022-10-19T14:15:34.984Z,30.35
2022-10-19T14:18:37.785Z,37.63
2022-10-19T14:21:41.791Z,34.30
2022-10-19T14:24:43.905Z,31.33
2022-10-19T14:27:47.749Z,31.35
2022-10-19T14:31:20.208Z,32.33
2022-10-19T14:34:22.517Z,26.35
2022-10-19T14:37:26.707Z,30.27
2022-10-19T14:40:34.170Z,38.42
2022-10-19T14:43:36.480Z,35.00
2022-10-19T14:46:38.936Z,36.72
2022-10-19T14:49:41.049Z,31.52
2022-10-19T14:52:43.607Z,30.38
2022-10-19T14:55:46.458Z,30.95
2022-10-19T14:58:55.587Z,29.15
2022-10-19T15:02:01.057Z,29.45
2022-10-19T15:05:06.298Z,32.60
2022-10-19T15:08:15.239Z,29.58
2022-10-19T15:11:41.442Z,24.73
2022-10-19T15:14:44.515Z,31.27
2022-10-19T15:18:01.931Z,35.28
2022-10-19T15:21:14.434Z,38.78
2022-10-19T15:24:28.148Z,32.45
2022-10-19T15:27:39.190Z,27.23
2022-10-19T15:30:41.919Z,33.28
2022-10-19T15:33:47.991Z,28.17
2022-10-19T15:36:58.688Z,39.35
2022-10-19T15:40:13.570Z,32.85
2022-10-19T15:43:30.651Z,32.33
2022-10-19T15:46:43.715Z,29.15
2022-10-19T15:49:45.941Z,32.40
2022-10-19T15:52:48.065Z,33.47
2022-10-19T15:55:52.201Z,34.20
2022-10-19T15:58:57.441Z,33.05
2022-10-19T16:01:59.634Z,37.13
2022-10-19T16:05:01.775Z,33.78
2022-10-19T16:08:08.845Z,31.92
2022-10-19T16:11:14.494Z,27.58
2022-10-19T16:17:39.187Z,31.15
2022-10-19T16:20:42.059Z,34.85
2022-10-19T16:23:44.327Z,34.05
2022-10-19T16:26:46.428Z,35.20
2022-10-19T16:29:48.499Z,33.53
2022-10-19T16:32:50.662Z,33.95
2022-10-19T16:35:52.743Z,31.58
2022-10-19T16:38:55.220Z,37.22
2022-10-19T16:41:57.314Z,33.63
2022-10-19T16:44:59.329Z,36.08
2022-10-19T16:48:01.840Z,29.10
2022-10-19T16:51:06.876Z,29.20
2022-10-19T16:54:11.344Z,30.02
2022-10-19T16:57:13.543Z,31.00
2022-10-19T17:00:15.691Z,30.45
2022-10-19T17:03:17.817Z,30.50
2022-10-19T17:06:20.639Z,29.60
2022-10-19T17:09:40.980Z,29.20
2022-10-19T17:12:44.169Z,26.80
2022-10-19T17:15:46.216Z,30.88
2022-10-19T17:18:49.290Z,30.05
2022-10-19T17:21:51.424Z,29.45
2022-10-19T17:24:55.519Z,29.52
2022-10-19T17:27:57.566Z,29.60
2022-10-19T17:31:07.421Z,27.23
2022-10-19T17:34:09.906Z,27.83
2022-10-19T17:37:12.010Z,29.00
2022-10-19T17:40:14.257Z,30.88
2022-10-19T17:43:16.312Z,28.50
2022-10-19T17:46:23.961Z,27.17
2022-10-19T17:49:26.048Z,29.02
2022-10-19T17:52:28.132Z,29.70
2022-10-19T17:55:30.287Z,30.98
2022-10-19T17:58:36.353Z,27.90
2022-10-19T18:01:41.211Z,26.55
2022-10-19T18:04:43.269Z,27.10
2022-10-19T18:07:45.715Z,29.23
2022-10-19T18:10:47.770Z,27.55
2022-10-19T18:13:51.329Z,29.30
2022-10-19T18:16:53.449Z,27.92
2022-10-19T18:19:55.490Z,29.13
2022-10-19T18:22:57.544Z,28.00
2022-10-19T18:26:04.170Z,26.42
2022-10-19T18:29:16.159Z,23.75
2022-10-19T18:32:18.258Z,28.83
2022-10-19T18:35:20.352Z,29.42
2022-10-19T18:38:22.400Z,27.23
2022-10-19T18:41:24.601Z,26.13
2022-10-19T18:44:28.674Z,29.42
2022-10-19T18:47:32.583Z,30.58
2022-10-19T18:50:34.687Z,29.13
2022-10-19T18:53:37.148Z,29.13
2022-10-19T18:56:39.337Z,28.92
2022-10-19T18:59:42.047Z,31.05
2022-10-19T19:02:46.817Z,33.28
2022-10-19T19:05:49.840Z,28.02
2022-10-19T19:08:54.818Z,29.77
2022-10-19T19:11:58.364Z,31.23
2022-10-19T19:15:00.538Z,27.52
2022-10-19T19:18:02.682Z,31.75
2022-10-19T19:21:13.984Z,30.67
2022-10-19T19:24:22.059Z,31.27
2022-10-19T19:27:28.334Z,30.35
2022-10-19T19:30:33.608Z,28.70
2022-10-19T19:33:35.871Z,28.90
2022-10-19T19:40:01.936Z,30.88
2022-10-19T19:43:04.369Z,32.10
2022-10-19T19:46:12.621Z,33.15
2022-10-19T19:49:15.764Z,38.28
2022-10-19T19:52:18.369Z,31.90
2022-10-19T19:55:20.899Z,30.58
2022-10-19T19:58:23.075Z,34.53
2022-10-19T20:01:25.422Z,31.13
2022-10-19T20:04:27.677Z,35.22
2022-10-19T20:07:29.821Z,30.63
2022-10-19T20:10:32.855Z,30.33
2022-10-19T20:13:35.369Z,33.60
2022-10-19T20:16:37.590Z,33.67
2022-10-19T20:19:39.725Z,32.65
2022-10-19T20:22:46.485Z,34.28
2022-10-19T20:25:49.410Z,34.67
2022-10-19T20:28:51.860Z,34.28
2022-10-19T20:31:53.930Z,34.30
2022-10-19T20:34:56.003Z,35.65
2022-10-19T20:37:58.644Z,36.03
2022-10-19T20:41:07.031Z,36.03
2022-10-19T20:44:10.235Z,36.80
2022-10-19T20:47:12.563Z,33.08
2022-10-19T20:50:16.102Z,37.33
2022-10-19T20:53:20.208Z,36.08
2022-10-19T20:56:28.348Z,34.72
2022-10-19T20:59:31.680Z,41.42
2022-10-19T21:02:33.998Z,38.72
2022-10-19T21:05:38.465Z,36.55
2022-10-19T21:08:40.564Z,40.90
2022-10-19T21:11:44.374Z,34.35
2022-10-19T21:14:46.514Z,40.38
2022-10-19T21:17:48.650Z,40.80
2022-10-19T21:20:50.697Z,41.95
2022-10-19T21:23:56.419Z,37.38
2022-10-19T21:27:01.604Z,35.20
2022-10-19T21:30:04.592Z,39.25
2022-10-19T21:33:06.658Z,40.85
2022-10-19T21:36:09.875Z,36.28
2022-10-19T21:39:12.000Z,38.25
2022-10-19T21:42:14.152Z,38.47
2022-10-19T21:45:29.875Z,40.70
2022-10-19T21:48:33.596Z,37.22
2022-10-19T21:51:43.460Z,38.22
2022-10-19T21:54:45.457Z,40.53
2022-10-19T21:57:47.528Z,40.40
2022-10-19T22:00:49.930Z,36.38
2022-10-19T22:03:56.865Z,40.22
2022-10-19T22:07:00.703Z,38.35
2022-10-19T22:10:02.903Z,42.17
2022-10-19T22:13:04.933Z,40.72
2022-10-19T22:16:13.173Z,39.55
2022-10-19T22:19:15.473Z,35.72
2022-10-19T22:22:17.662Z,39.47
2022-10-19T22:25:20.047Z,36.05
2022-10-19T22:28:22.383Z,39.85
2022-10-19T22:31:25.770Z,40.17
2022-10-19T22:34:27.963Z,38.30
2022-10-19T22:37:30.043Z,37.20
2022-10-19T22:40:32.359Z,36.95
2022-10-19T22:44:30.613Z,36.38
2022-10-19T22:48:47.279Z,35.85
2022-10-19T22:52:57.677Z,35.38
2022-10-19T22:55:59.722Z,35.45
2022-10-19T22:59:03.734Z,35.85
2022-10-19T23:02:05.858Z,38.22
2022-10-19T23:05:08.424Z,33.28
2022-10-19T23:08:10.481Z,35.00
2022-10-19T23:11:12.924Z,32.92
2022-10-19T23:14:15.688Z,36.83
2022-10-19T23:17:17.748Z,34.45
2022-10-19T23:20:19.884Z,33.70
2022-10-19T23:23:22.766Z,38.78
2022-10-19T23:26:25.260Z,37.38
2022-10-19T23:29:27.440Z,31.48
2022-10-19T23:32:29.514Z,31.35
2022-10-19T23:35:31.554Z,36.13
2022-10-19T23:38:34.102Z,34.03
2022-10-19T23:41:36.724Z,34.83
2022-10-19T23:44:38.810Z,34.33
2022-10-19T23:47:40.857Z,31.30
2022-10-19T23:50:43.054Z,31.55
2022-10-19T23:53:47.424Z,32.05
2022-10-19T23:56:49.508Z,34.65
2022-10-19T23:59:51.554Z,28.27
